Time;durP1;ratioP1;P1;durP2;ratioP2;P2;SDS_P1;SDS_P2;PMS_P1;PMS_P2;Temp;Humidity;BMP_temperature;BMP_pressure;BME280_temperature;BME280_humidity;BME280_pressure;Samples;Min_cycle;Max_cycle;Signal;HPM_P1;HPM_P2
2023/10/09 00:00:36;;;;;;;1.50;0.00;;;;;;;6.15;69.41;99926.55;88325;283;135633;-70
2023/10/09 00:02:34;;;;;;;2.70;0.10;;;;;;;6.12;69.47;99938.38;88611;281;22531;-69
2023/10/09 00:04:42;;;;;;;1.60;0.00;;;;;;;6.10;69.64;99951.28;88631;274;135645;-70
2023/10/09 00:06:46;;;;;;;0.30;0.00;;;;;;;6.10;69.62;99952.34;88626;277;22614;-71
2023/10/09 00:08:53;;;;;;;1.40;0.00;;;;;;;6.11;69.91;99956.10;88557;273;135769;-70
2023/10/09 00:11:16;;;;;;;0.10;0.10;;;;;;;6.11;70.00;99962.39;88617;281;22531;-69
2023/10/09 00:13:20;;;;;;;0.10;0.10;;;;;;;6.09;70.19;99959.29;88577;280;135730;-70
2023/10/09 00:15:22;;;;;;;2.00;0.10;;;;;;;6.06;70.54;99960.14;88633;273;22521;-69
2023/10/09 00:17:24;;;;;;;0.10;0.00;;;;;;;6.03;70.83;99964.63;88764;281;135384;-68
2023/10/09 00:19:34;;;;;;;3.40;0.00;;;;;;;6.03;71.22;99964.36;88850;273;22540;-69
2023/10/09 00:21:38;;;;;;;1.30;0.00;;;;;;;6.04;71.85;99960.12;89243;281;135649;-68
2023/10/09 00:23:41;;;;;;;0.10;0.10;;;;;;;6.05;71.99;99964.12;88642;281;25219;-71
2023/10/09 00:26:07;;;;;;;1.50;0.10;;;;;;;6.04;72.08;99963.46;88490;274;135477;-69
2023/10/09 00:28:10;;;;;;;0.20;0.10;;;;;;;6.03;73.42;99977.02;88451;281;136151;-69
2023/10/09 00:30:21;;;;;;;0.00;0.00;;;;;;;6.00;74.03;99968.20;88689;282;22677;-69
2023/10/09 00:32:26;;;;;;;0.10;0.00;;;;;;;6.06;73.58;99977.02;90122;280;136676;-74
2023/10/09 00:34:28;;;;;;;;;;;;;;;6.09;73.46;99958.10;88624;274;22528;-70
2023/10/09 00:36:30;;;;;;;0.30;0.00;;;;;;;6.08;72.84;99966.11;88501;281;123511;-71
2023/10/09 00:38:34;;;;;;;0.70;0.00;;;;;;;6.06;72.82;99965.45;88510;282;23977;-69
2023/10/09 00:40:45;;;;;;;0.90;0.00;;;;;;;6.05;72.47;99974.38;88437;273;135651;-74
2023/10/09 00:42:49;;;;;;;1.00;0.10;;;;;;;6.02;72.73;99970.93;88608;281;22525;-72
2023/10/09 00:44:51;;;;;;;0.20;0.00;;;;;;;6.00;72.78;99982.78;88374;279;135619;-69
2023/10/09 00:46:54;;;;;;;2.00;0.00;;;;;;;5.99;73.10;99988.38;88355;283;25084;-69
2023/10/09 00:48:59;;;;;;;1.50;0.10;;;;;;;5.97;73.49;99989.71;88217;275;135679;-70
2023/10/09 00:51:01;;;;;;;1.80;0.10;;;;;;;5.95;73.55;99988.61;88387;283;25169;-70
2023/10/09 00:53:05;;;;;;;1.00;0.30;;;;;;;5.94;73.68;99992.98;88414;281;135849;-71
2023/10/09 00:55:13;;;;;;;0.10;0.00;;;;;;;5.92;74.13;99989.11;88505;282;25076;-70
2023/10/09 00:57:18;;;;;;;1.30;0.10;;;;;;;5.92;74.13;100000.48;88344;274;135858;-68
2023/10/09 00:59:22;;;;;;;0.40;0.00;;;;;;;5.91;74.45;99994.04;88709;278;25115;-69
2023/10/09 01:01:28;;;;;;;0.10;0.10;;;;;;;5.94;74.45;99987.88;88374;277;138266;-66
2023/10/09 01:03:33;;;;;;;0.00;0.00;;;;;;;5.99;73.92;99995.08;88525;282;22518;-69
2023/10/09 01:05:36;;;;;;;0.50;0.00;;;;;;;5.99;73.99;99995.59;88430;282;135961;-67
2023/10/09 01:07:44;;;;;;;1.90;0.10;;;;;;;5.98;74.07;100001.00;88460;274;26113;-66
2023/10/09 01:09:49;;;;;;;1.40;0.00;;;;;;;5.98;74.40;100010.44;88431;274;136105;-69
2023/10/09 01:12:03;;;;;;;3.90;0.20;;;;;;;5.97;74.28;100010.10;88344;280;26282;-66
2023/10/09 01:16:15;;;;;;;0.50;0.10;;;;;;;5.93;74.77;100006.45;88584;275;135858;-66
2023/10/09 01:18:19;;;;;;;0.30;0.00;;;;;;;5.87;74.43;100006.77;88547;281;26170;-69
2023/10/09 01:20:30;;;;;;;1.80;0.10;;;;;;;5.76;74.27;99999.11;88382;282;136241;-71
2023/10/09 01:22:32;;;;;;;0.10;0.10;;;;;;;5.83;74.04;100018.15;88563;274;22547;-66
2023/10/09 01:24:38;;;;;;;0.10;0.00;;;;;;;5.83;74.20;100031.76;88215;276;135683;-67
2023/10/09 01:26:46;;;;;;;0.10;0.00;;;;;;;5.82;74.28;100032.50;88620;274;25096;-68
2023/10/09 01:28:49;;;;;;;0.20;0.10;;;;;;;5.81;74.69;100023.61;88443;278;136061;-66
2023/10/09 01:30:51;;;;;;;0.00;0.00;;;;;;;5.80;74.78;100033.25;88569;278;23709;-69
2023/10/09 01:32:53;;;;;;;0.30;0.00;;;;;;;5.80;74.81;100036.09;88442;281;135951;-68
2023/10/09 01:34:58;;;;;;;1.40;0.10;;;;;;;5.80;74.86;100043.62;88591;281;22537;-69
2023/10/09 01:37:05;;;;;;;;;;;;;;;5.88;74.59;100041.36;88394;275;136788;-71
2023/10/09 01:41:24;;;;;;;0.10;0.10;;;;;;;6.04;73.62;100037.96;88471;281;136268;-70
2023/10/09 01:43:27;;;;;;;0.20;0.00;;;;;;;6.01;73.34;100040.76;88561;274;23601;-71
2023/10/09 01:45:29;;;;;;;1.20;0.00;;;;;;;5.97;73.57;100045.75;88500;279;137392;-70
2023/10/09 01:47:32;;;;;;;0.00;0.00;;;;;;;5.96;73.65;100045.38;88593;281;25315;-67
2023/10/09 01:49:37;;;;;;;2.10;0.10;;;;;;;5.96;73.63;100050.41;88328;274;135974;-68
2023/10/09 01:51:39;;;;;;;0.10;0.00;;;;;;;5.96;73.41;100058.41;88455;285;22523;-71
2023/10/09 01:53:41;;;;;;;0.20;0.10;;;;;;;5.94;73.52;100052.24;88482;274;135701;-68
2023/10/09 01:55:45;;;;;;;0.60;0.00;;;;;;;5.91;73.63;100054.18;88479;283;24030;-67
2023/10/09 01:57:47;;;;;;;0.10;0.10;;;;;;;5.86;73.97;100056.24;88462;279;135700;-68
2023/10/09 01:59:53;;;;;;;0.50;0.00;;;;;;;5.86;73.97;100058.23;88330;282;22540;-70
2023/10/09 02:01:58;;;;;;;0.30;0.10;;;;;;;5.84;73.85;100049.06;88815;282;135782;-72
2023/10/09 02:04:07;;;;;;;0.30;0.00;;;;;;;5.86;73.32;100059.95;88524;282;25280;-68
2023/10/09 02:07:12;;;;;;;0.00;0.00;;;;;;;5.84;73.32;100065.09;88490;283;25230;-68
2023/10/09 02:08:49;;;;;;;1.30;0.00;;;;;;;5.83;73.56;100068.70;88289;274;135755;-68
2023/10/09 02:10:55;;;;;;;0.10;0.00;;;;;;;5.83;73.58;100069.92;88764;281;26362;-68
2023/10/09 02:13:06;;;;;;;0.50;0.00;;;;;;;5.85;73.74;100070.94;88412;278;137279;-67
2023/10/09 02:15:15;;;;;;;2.30;0.10;;;;;;;5.82;73.79;100074.48;88610;278;24054;-70
2023/10/09 02:17:17;;;;;;;0.60;0.10;;;;;;;5.89;73.67;100065.27;88507;279;136444;-67
2023/10/09 02:19:31;;;;;;;1.20;0.60;;;;;;;5.98;73.49;100077.90;88558;274;25108;-70
2023/10/09 02:21:34;;;;;;;0.40;0.10;;;;;;;5.99;73.33;100068.61;88332;279;135839;-72
2023/10/09 02:23:46;;;;;;;0.10;0.00;;;;;;;5.96;73.36;100067.39;88564;282;25141;-68
2023/10/09 02:25:53;;;;;;;0.10;0.00;;;;;;;5.93;72.83;100077.76;88492;281;135966;-70
2023/10/09 02:27:59;;;;;;;0.40;0.20;;;;;;;5.89;72.90;100086.96;88558;274;23047;-69
2023/10/09 02:30:10;;;;;;;0.10;0.00;;;;;;;5.87;73.09;100088.39;88385;274;139643;-68
2023/10/09 02:32:24;;;;;;;1.10;0.00;;;;;;;5.87;72.90;100086.73;88474;278;136388;-71
2023/10/09 02:34:27;;;;;;;0.00;0.00;;;;;;;5.85;72.86;100093.52;88640;282;25223;-71
2023/10/09 02:36:30;;;;;;;0.20;0.10;;;;;;;5.85;72.84;100092.73;88392;282;135858;-68
2023/10/09 02:38:38;;;;;;;0.40;0.00;;;;;;;5.76;72.85;100075.84;88726;283;23415;-70
2023/10/09 02:43:03;;;;;;;0.60;0.10;;;;;;;5.84;73.19;100102.83;88288;283;24296;-69
2023/10/09 02:45:06;;;;;;;0.40;0.10;;;;;;;5.83;73.31;100098.52;88308;275;135692;-66
2023/10/09 02:47:17;;;;;;;0.60;0.40;;;;;;;5.82;73.55;100101.79;88493;280;24191;-66
2023/10/09 02:49:21;;;;;;;0.20;0.00;;;;;;;5.81;73.76;100092.43;88525;280;136092;-69
2023/10/09 02:53:34;;;;;;;0.70;0.50;;;;;;;5.78;74.20;100101.03;88479;280;136274;-68
2023/10/09 02:55:38;;;;;;;0.80;0.10;;;;;;;5.77;74.49;100102.17;88652;278;22534;-68
2023/10/09 02:57:41;;;;;;;0.70;0.00;;;;;;;5.86;74.39;100103.91;88336;282;137371;-70
2023/10/09 02:59:44;;;;;;;0.30;0.10;;;;;;;5.94;74.46;100106.52;88502;278;22551;-67
2023/10/09 03:01:48;;;;;;;1.20;0.10;;;;;;;5.98;74.33;100111.10;88879;281;136534;-72
2023/10/09 03:03:50;;;;;;;0.40;0.10;;;;;;;5.95;74.70;100112.25;88560;275;22527;-73
2023/10/09 03:05:52;;;;;;;5.40;0.10;;;;;;;5.94;74.71;100107.83;88482;281;135861;-71
2023/10/09 03:07:54;;;;;;;0.40;0.10;;;;;;;5.92;74.56;100110.17;88495;278;25254;-70
2023/10/09 03:09:56;;;;;;;0.60;0.30;;;;;;;5.89;74.68;100117.34;88733;281;135566;-72
2023/10/09 03:12:04;;;;;;;0.50;0.10;;;;;;;5.88;74.62;100114.05;88532;281;25213;-72
2023/10/09 03:14:06;;;;;;;1.20;0.10;;;;;;;5.87;74.63;100119.48;88645;277;23958;-70
2023/10/09 03:16:14;;;;;;;2.50;0.10;;;;;;;5.86;74.89;100120.24;88440;278;136193;-71
2023/10/09 03:18:20;;;;;;;0.40;0.20;;;;;;;5.86;75.08;100120.29;88807;281;22534;-71
2023/10/09 03:20:24;;;;;;;0.50;0.00;;;;;;;5.84;75.19;100119.25;88645;274;136886;-70
2023/10/09 03:22:26;;;;;;;0.20;0.10;;;;;;;5.82;75.02;100120.89;88526;274;22621;-71
2023/10/09 03:24:28;;;;;;;0.30;0.00;;;;;;;5.80;74.95;100123.71;88400;274;135960;-72
2023/10/09 03:26:31;;;;;;;1.10;0.10;;;;;;;5.80;75.09;100121.79;88694;274;25168;-72
2023/10/09 03:28:33;;;;;;;0.60;0.10;;;;;;;5.84;74.76;100114.69;88441;274;136603;-72
2023/10/09 03:30:37;;;;;;;0.60;0.10;;;;;;;5.86;74.20;100126.99;88481;281;22599;-71
2023/10/09 03:32:39;;;;;;;1.80;0.60;;;;;;;5.83;74.34;100124.08;88427;274;135800;-70
2023/10/09 03:34:42;;;;;;;0.50;0.10;;;;;;;5.72;74.34;100112.77;88412;283;24116;-71
2023/10/09 03:36:48;;;;;;;0.20;0.00;;;;;;;5.74;74.67;100124.02;88410;279;136075;-70
2023/10/09 03:38:53;;;;;;;0.80;0.00;;;;;;;5.69;75.17;100124.09;88471;274;24052;-72
2023/10/09 03:40:56;;;;;;;0.20;0.20;;;;;;;5.62;75.71;100128.66;88392;279;136170;-71
2023/10/09 03:42:58;;;;;;;0.10;0.00;;;;;;;5.56;76.32;100141.96;88544;274;22533;-70
2023/10/09 03:45:00;;;;;;;0.30;0.00;;;;;;;5.48;77.31;100134.57;88403;282;135549;-70
2023/10/09 03:47:02;;;;;;;2.70;0.10;;;;;;;5.43;77.92;100145.02;88499;281;24948;-70
2023/10/09 03:49:10;;;;;;;0.50;0.00;;;;;;;5.44;78.24;100149.64;88390;277;138597;-70
2023/10/09 03:51:15;;;;;;;0.80;0.00;;;;;;;5.45;78.97;100153.09;88529;274;22528;-69
2023/10/09 03:53:19;;;;;;;1.00;0.00;;;;;;;5.40;80.20;100154.23;88443;278;136135;-70
2023/10/09 03:55:27;;;;;;;0.10;0.10;;;;;;;5.30;80.72;100159.77;88526;281;22832;-73
2023/10/09 03:57:30;;;;;;;1.20;0.10;;;;;;;5.22;81.15;100156.50;88502;278;136056;-72
2023/10/09 03:59:32;;;;;;;0.20;0.00;;;;;;;5.16;82.29;100160.04;88622;273;22533;-72
2023/10/09 04:01:40;;;;;;;1.60;0.10;;;;;;;5.08;82.64;100157.16;88361;273;136286;-74
2023/10/09 04:03:43;;;;;;;0.90;0.10;;;;;;;5.01;83.15;100164.91;88510;280;22579;-70
2023/10/09 04:05:45;;;;;;;0.10;0.10;;;;;;;5.03;84.23;100164.48;88222;274;136815;-71
2023/10/09 04:07:48;;;;;;;1.20;0.00;;;;;;;5.07;84.61;100159.00;88374;279;22630;-70
2023/10/09 04:10:26;;;;;;;1.40;0.10;;;;;;;5.06;84.43;100172.27;88324;274;137814;-71
2023/10/09 04:12:19;;;;;;;2.30;0.10;;;;;;;4.99;85.29;100168.91;88323;278;137743;-69
2023/10/09 04:14:31;;;;;;;0.40;0.10;;;;;;;4.93;86.34;100172.02;88493;278;22531;-72
2023/10/09 04:18:38;;;;;;;1.90;0.10;;;;;;;4.83;87.18;100180.05;88365;279;22605;-70
2023/10/09 04:23:04;;;;;;;3.50;0.30;;;;;;;4.93;87.36;100180.67;88297;275;25163;-68
2023/10/09 04:25:14;;;;;;;1.10;0.80;;;;;;;4.95;87.37;100187.46;88374;274;136286;-66
2023/10/09 04:27:17;;;;;;;1.60;1.00;;;;;;;4.94;87.08;100188.28;88677;274;22534;-71
2023/10/09 04:29:28;;;;;;;2.00;0.30;;;;;;;4.90;87.33;100188.88;88436;278;136041;-70
2023/10/09 04:31:32;;;;;;;1.00;0.10;;;;;;;4.86;87.58;100193.67;88362;274;22649;-70
2023/10/09 04:35:38;;;;;;;1.50;0.10;;;;;;;4.74;87.49;100181.86;88422;273;22532;-73
2023/10/09 04:37:44;;;;;;;0.30;0.10;;;;;;;4.88;87.99;100195.02;88357;281;136396;-71
2023/10/09 04:40:01;;;;;;;0.50;0.10;;;;;;;4.97;87.78;100195.52;88254;276;22545;-70
2023/10/09 04:44:24;;;;;;;0.90;0.10;;;;;;;5.03;86.61;100209.77;88327;274;136131;-70
2023/10/09 04:46:26;;;;;;;1.00;0.30;;;;;;;5.01;86.96;100203.27;88314;274;25216;-72
2023/10/09 04:48:38;;;;;;;0.70;0.10;;;;;;;4.99;86.79;100204.02;88475;274;136192;-72
2023/10/09 04:51:20;;;;;;;0.20;0.10;;;;;;;5.02;86.47;100210.41;88329;279;22968;-74
2023/10/09 04:55:18;;;;;;;2.80;0.10;;;;;;;5.75;84.81;100227.20;88436;274;25085;-71
2023/10/09 04:57:21;;;;;;;0.40;0.10;;;;;;;6.36;81.03;100228.81;88388;274;136765;-73
2023/10/09 04:59:25;;;;;;;0.10;0.10;;;;;;;6.70;78.43;100215.83;88433;281;22530;-73
2023/10/09 05:01:36;;;;;;;0.90;0.10;;;;;;;6.86;75.81;100234.37;88380;278;137231;-74
2023/10/09 05:07:54;;;;;;;2.70;0.10;;;;;;;6.73;76.32;100250.13;87949;278;749665;-74
2023/10/09 05:10:06;;;;;;;1.40;0.10;;;;;;;6.89;74.46;100248.81;89129;282;136648;-71
2023/10/09 05:12:15;;;;;;;1.10;0.20;;;;;;;6.91;74.13;100258.73;88817;275;137536;-71
2023/10/09 05:14:19;;;;;;;0.10;0.10;;;;;;;6.91;73.61;100261.23;91380;282;22396;-71
2023/10/09 05:16:33;;;;;;;1.70;0.20;;;;;;;6.87;73.39;100268.38;91271;274;137422;-71
2023/10/09 05:18:37;;;;;;;0.80;0.10;;;;;;;6.76;73.51;100269.71;91169;280;23104;-73
2023/10/09 05:20:55;;;;;;;0.30;0.10;;;;;;;6.62;73.78;100265.03;90246;274;137349;-77
2023/10/09 05:22:58;;;;;;;1.80;0.10;;;;;;;6.41;74.35;100273.10;88789;274;25102;-73
2023/10/09 05:25:00;;;;;;;1.70;0.10;;;;;;;6.37;75.19;100274.89;88498;274;136915;-75
2023/10/09 05:27:18;;;;;;;0.90;0.10;;;;;;;6.56;75.63;100268.56;88538;282;22625;-75
2023/10/09 05:34:01;;;;;;;0.60;0.10;;;;;;;8.16;68.71;100271.68;88316;281;135949;-74
2023/10/09 05:36:17;;;;;;;0.20;0.10;;;;;;;8.78;66.90;100267.24;88478;274;136148;-71
2023/10/09 05:38:30;;;;;;;1.60;0.10;;;;;;;9.55;61.80;100279.33;88554;274;22550;-75
2023/10/09 05:40:32;;;;;;;2.60;0.20;;;;;;;10.00;59.60;100279.94;88734;278;135783;-74
2023/10/09 05:47:29;;;;;;;2.90;0.10;;;;;;;10.82;56.03;100277.04;88385;278;25121;-76
2023/10/09 05:49:46;;;;;;;2.00;0.20;;;;;;;10.97;53.90;100275.31;88462;282;138822;-77
2023/10/09 05:51:53;;;;;;;0.60;0.10;;;;;;;11.08;53.54;100277.02;88915;281;24178;-74
2023/10/09 05:54:11;;;;;;;0.20;0.20;;;;;;;11.30;53.04;100276.84;88302;282;135761;-75
2023/10/09 06:03:25;;;;;;;0.20;0.10;;;;;;;11.63;50.15;100277.35;89162;281;25389;-73
2023/10/09 06:05:40;;;;;;;0.50;0.20;;;;;;;11.04;51.18;100287.69;88564;281;136322;-73
2023/10/09 06:08:04;;;;;;;0.70;0.00;;;;;;;10.25;53.20;100283.85;88911;282;22757;-76
2023/10/09 06:10:17;;;;;;;1.50;0.10;;;;;;;9.59;55.16;100286.48;88964;281;23709;-75
2023/10/09 06:18:41;;;;;;;1.00;0.10;;;;;;;7.98;61.44;100315.92;88690;276;25171;-78
2023/10/09 06:23:15;;;;;;;0.80;0.10;;;;;;;7.52;63.45;100322.83;90054;278;24029;-75
2023/10/09 06:25:18;;;;;;;0.10;0.10;;;;;;;7.35;64.43;100326.26;88704;274;135695;-77
2023/10/09 06:27:56;;;;;;;1.30;0.20;;;;;;;7.18;64.60;100317.20;88797;276;22544;-76
2023/10/09 06:32:16;;;;;;;1.30;0.40;;;;;;;6.99;65.41;100323.27;88690;280;22530;-76
2023/10/09 06:34:20;;;;;;;0.10;0.10;;;;;;;7.00;65.67;100345.10;88822;275;22535;-76
2023/10/09 06:36:31;;;;;;;1.10;0.30;;;;;;;6.95;66.54;100342.05;88514;279;135993;-74
2023/10/09 06:38:51;;;;;;;0.70;0.50;;;;;;;6.90;66.74;100343.17;88794;274;24098;-74
2023/10/09 06:43:16;;;;;;;1.60;0.10;;;;;;;6.90;67.20;100334.61;89263;277;22628;-75
2023/10/09 06:45:20;;;;;;;0.70;0.10;;;;;;;6.96;67.09;100337.20;89016;281;136525;-75
2023/10/09 06:47:24;;;;;;;0.40;0.10;;;;;;;7.08;66.54;100334.20;89070;278;25872;-77
2023/10/09 06:49:29;;;;;;;0.20;0.00;;;;;;;7.18;65.50;100335.29;89539;274;135681;-74
2023/10/09 06:56:22;;;;;;;0.80;0.30;;;;;;;7.45;64.10;100331.56;87901;276;136307;-71
2023/10/09 06:58:27;;;;;;;1.60;1.00;;;;;;;7.53;63.63;100336.15;88985;282;22708;-72
2023/10/09 07:03:11;;;;;;;0.40;0.10;;;;;;;7.64;63.09;100332.19;88144;281;25208;-74
2023/10/09 07:05:17;;;;;;;0.40;0.10;;;;;;;7.71;63.02;100328.52;88332;274;135973;-74
2023/10/09 07:07:20;;;;;;;0.50;0.10;;;;;;;7.74;62.08;100323.40;88495;274;22531;-73
2023/10/09 07:09:23;;;;;;;0.40;0.20;;;;;;;7.69;62.24;100328.36;88697;281;135671;-73
2023/10/09 07:13:41;;;;;;;1.10;0.50;;;;;;;7.72;61.60;100338.54;88916;282;136812;-74
2023/10/09 07:18:18;;;;;;;1.50;0.10;;;;;;;7.81;62.62;100346.90;88970;280;25229;-72
2023/10/09 07:20:36;;;;;;;0.40;0.10;;;;;;;7.92;62.16;100354.18;88411;280;136128;-72
2023/10/09 07:22:53;;;;;;;2.60;0.30;;;;;;;7.97;62.01;100344.77;88402;274;25236;-75
2023/10/09 07:27:06;;;;;;;1.00;0.10;;;;;;;8.05;61.35;100347.39;88460;274;22547;-75
2023/10/09 07:29:21;;;;;;;2.40;0.10;;;;;;;8.11;60.91;100341.08;88307;275;137205;-76
2023/10/09 07:31:27;;;;;;;0.40;0.10;;;;;;;8.14;60.61;100348.16;88828;275;23665;-76
2023/10/09 07:34:30;;;;;;;1.40;0.10;;;;;;;8.16;60.19;100352.35;89013;281;135949;-76
2023/10/09 07:37:56;;;;;;;0.70;0.10;;;;;;;8.18;59.49;100358.86;88935;274;135395;-74
2023/10/09 07:39:58;;;;;;;0.70;0.20;;;;;;;8.20;59.68;100364.89;88309;282;22526;-74
2023/10/09 07:42:26;;;;;;;1.40;0.10;;;;;;;8.22;59.42;100370.95;88392;281;135490;-73
2023/10/09 07:44:36;;;;;;;0.10;0.00;;;;;;;8.25;59.70;100367.46;88627;281;137112;-75
2023/10/09 07:47:13;;;;;;;1.40;0.10;;;;;;;8.28;59.01;100363.23;88386;281;25201;-73
2023/10/09 07:49:24;;;;;;;2.70;0.10;;;;;;;8.31;58.66;100370.33;88337;282;135975;-72
2023/10/09 07:51:30;;;;;;;0.20;0.10;;;;;;;8.33;58.57;100364.38;88579;282;24028;-72
2023/10/09 07:53:43;;;;;;;0.10;0.00;;;;;;;8.35;58.59;100366.32;89875;281;135857;-75
2023/10/09 07:55:54;;;;;;;1.20;0.10;;;;;;;8.37;58.78;100376.91;88472;274;22519;-73
2023/10/09 07:57:56;;;;;;;0.30;0.10;;;;;;;8.41;57.84;100376.30;88389;274;136047;-73
2023/10/09 08:00:01;;;;;;;3.90;0.10;;;;;;;8.42;57.07;100378.20;88508;274;22540;-71
2023/10/09 08:02:16;;;;;;;3.20;0.00;;;;;;;8.38;56.82;100379.09;88324;281;22518;-74
2023/10/09 08:04:37;;;;;;;2.80;0.30;;;;;;;8.31;56.99;100377.02;88739;282;137335;-74
2023/10/09 08:06:42;;;;;;;0.30;0.10;;;;;;;8.28;57.12;100378.88;88606;274;23150;-72
2023/10/09 08:13:56;;;;;;;0.30;0.10;;;;;;;8.38;55.39;100360.39;88263;280;136019;-76
2023/10/09 08:16:03;;;;;;;1.40;0.10;;;;;;;8.48;54.96;100381.81;88421;280;25183;-73
2023/10/09 08:18:27;;;;;;;1.40;0.10;;;;;;;8.45;54.78;100381.14;88555;278;25533;-75
2023/10/09 08:22:56;;;;;;;0.60;0.20;;;;;;;8.47;54.99;100376.02;88378;274;22768;-74
2023/10/09 08:24:58;;;;;;;0.10;0.10;;;;;;;8.48;54.54;100369.75;88348;282;136465;-72
2023/10/09 08:29:24;;;;;;;0.10;0.10;;;;;;;8.54;54.27;100368.28;88274;274;136163;-71
2023/10/09 08:31:45;;;;;;;0.30;0.30;;;;;;;8.56;54.33;100375.65;88343;273;25191;-72
2023/10/09 08:33:57;;;;;;;0.40;0.10;;;;;;;8.61;54.13;100379.78;88187;282;136033;-72
2023/10/09 08:36:04;;;;;;;0.50;0.00;;;;;;;8.66;53.84;100377.35;88428;274;136120;-70
2023/10/09 08:38:10;;;;;;;1.00;0.30;;;;;;;8.73;53.33;100383.98;88451;273;22776;-71
2023/10/09 08:40:16;;;;;;;1.20;0.50;;;;;;;8.79;52.82;100388.80;88398;273;135968;-74
2023/10/09 08:42:18;;;;;;;0.50;0.10;;;;;;;8.82;53.00;100386.20;88366;278;22607;-72
2023/10/09 08:44:23;;;;;;;1.50;0.10;;;;;;;8.85;53.24;100384.36;88300;275;136170;-73
2023/10/09 08:46:27;;;;;;;1.70;0.20;;;;;;;8.88;53.39;100379.88;88915;274;24165;-73
2023/10/09 08:48:30;;;;;;;0.30;0.10;;;;;;;8.88;53.15;100369.45;88270;275;136120;-72
2023/10/09 08:50:34;;;;;;;5.40;0.10;;;;;;;8.94;52.66;100385.16;89063;278;22549;-73
2023/10/09 08:52:37;;;;;;;3.10;0.10;;;;;;;8.95;52.46;100380.44;88557;277;137555;-73
2023/10/09 08:54:39;;;;;;;0.10;0.00;;;;;;;8.98;52.35;100383.33;88559;277;25169;-76
2023/10/09 08:56:51;;;;;;;0.20;0.10;;;;;;;9.00;52.30;100385.59;88264;275;137075;-73
2023/10/09 08:58:56;;;;;;;1.00;0.10;;;;;;;9.04;52.02;100379.84;88918;274;22559;-75
2023/10/09 09:01:00;;;;;;;0.20;0.10;;;;;;;9.05;52.20;100379.70;88241;274;136257;-75
2023/10/09 09:03:03;;;;;;;2.20;0.10;;;;;;;9.08;52.27;100381.06;88825;276;22543;-73
2023/10/09 09:05:35;;;;;;;2.70;0.20;;;;;;;9.14;52.33;100383.41;88807;274;137043;-69
2023/10/09 09:09:28;;;;;;;0.30;0.00;;;;;;;9.18;50.98;100385.95;86466;309;602377;-71
2023/10/09 09:11:30;;;;;;;0.50;0.00;;;;;;;9.20;50.89;100380.75;87868;292;24185;-72
2023/10/09 09:13:34;;;;;;;0.20;0.10;;;;;;;9.27;51.08;100385.61;87423;297;135269;-73
2023/10/09 09:15:39;;;;;;;1.40;0.10;;;;;;;9.29;50.76;100388.63;88430;295;24188;-71
2023/10/09 09:17:42;;;;;;;0.30;0.00;;;;;;;9.28;50.51;100386.04;88146;287;136039;-71
2023/10/09 09:19:48;;;;;;;0.30;0.10;;;;;;;9.27;49.94;100386.73;88457;290;25350;-71
2023/10/09 09:21:59;;;;;;;0.30;0.10;;;;;;;9.21;48.72;100395.40;87655;294;135679;-71
2023/10/09 09:24:01;;;;;;;0.70;0.10;;;;;;;9.10;48.60;100383.88;88114;287;816054;-68
2023/10/09 09:26:11;;;;;;;1.70;0.10;;;;;;;9.16;48.11;100395.27;89036;282;22531;-72
2023/10/09 09:28:21;;;;;;;1.30;0.10;;;;;;;9.08;48.26;100389.59;88635;278;137508;-74
2023/10/09 09:30:33;;;;;;;1.50;0.10;;;;;;;9.14;48.39;100401.51;88624;283;25219;-72
2023/10/09 09:32:39;;;;;;;1.50;0.10;;;;;;;9.13;48.55;100396.59;88799;278;136647;-73
2023/10/09 09:34:55;;;;;;;0.50;0.00;;;;;;;9.14;48.36;100396.59;88727;281;25041;-71
2023/10/09 09:36:58;;;;;;;0.20;0.10;;;;;;;9.14;48.57;100399.88;88259;285;135804;-77
2023/10/09 09:39:01;;;;;;;0.60;0.10;;;;;;;9.19;48.48;100398.08;88335;278;22556;-71
2023/10/09 09:41:07;;;;;;;0.10;0.10;;;;;;;9.24;47.50;100398.40;88640;283;135644;-74
2023/10/09 09:43:21;;;;;;;1.30;0.10;;;;;;;9.25;46.84;100393.88;88134;278;25157;-71
2023/10/09 09:45:26;;;;;;;1.20;0.10;;;;;;;9.23;45.83;100397.98;88160;278;137252;-73
2023/10/09 09:47:29;;;;;;;1.70;0.10;;;;;;;9.23;45.58;100392.98;88627;278;22542;-71
2023/10/09 09:49:33;;;;;;;1.60;0.10;;;;;;;9.23;44.74;100388.64;88121;278;135682;-71
2023/10/09 09:51:35;;;;;;;0.50;0.10;;;;;;;9.22;44.94;100391.70;88367;278;22547;-74
2023/10/09 09:53:37;;;;;;;1.20;0.10;;;;;;;9.24;45.24;100383.38;88207;285;135456;-71
2023/10/09 09:55:42;;;;;;;0.50;0.00;;;;;;;9.28;44.63;100382.23;88185;285;22616;-72
2023/10/09 09:57:45;;;;;;;0.30;0.00;;;;;;;9.30;44.56;100385.83;88625;277;135791;-70
2023/10/09 09:59:52;;;;;;;1.80;0.10;;;;;;;9.33;43.97;100390.58;88433;278;25677;-72
2023/10/09 10:01:57;;;;;;;0.70;0.10;;;;;;;9.34;44.41;100389.81;88219;278;136254;-73
2023/10/09 10:04:06;;;;;;;0.30;0.10;;;;;;;9.34;44.73;100383.52;88621;278;22533;-69
2023/10/09 10:06:13;;;;;;;2.40;0.10;;;;;;;9.36;43.91;100380.33;88260;281;25168;-73
2023/10/09 10:08:19;;;;;;;0.60;0.20;;;;;;;9.37;43.17;100380.08;88216;280;135687;-73
2023/10/09 10:10:47;;;;;;;3.30;0.10;;;;;;;9.36;43.55;100386.38;89281;281;24586;-75
2023/10/09 10:13:01;;;;;;;0.20;0.00;;;;;;;9.42;43.77;100383.60;88778;285;136562;-72
2023/10/09 10:15:14;;;;;;;3.60;0.10;;;;;;;9.46;43.43;100379.83;88813;280;24135;-74
2023/10/09 10:17:16;;;;;;;0.50;0.40;;;;;;;9.49;42.75;100372.63;88268;279;135412;-74
2023/10/09 10:23:36;;;;;;;0.10;0.00;;;;;;;9.45;42.77;100384.89;88209;284;25105;-77
2023/10/09 10:25:42;;;;;;;0.90;0.00;;;;;;;9.45;42.41;100377.02;88774;278;136958;-77
2023/10/09 10:28:28;;;;;;;0.90;0.00;;;;;;;9.45;42.58;100369.16;89014;282;25120;-75
2023/10/09 10:30:33;;;;;;;0.00;0.00;;;;;;;9.47;42.29;100365.77;88576;278;24824;-73
2023/10/09 10:32:56;;;;;;;0.00;0.00;;;;;;;9.49;42.51;100372.09;88241;282;135660;-74
2023/10/09 10:34:58;;;;;;;0.50;0.10;;;;;;;9.52;42.22;100364.82;88343;278;25124;-73
2023/10/09 10:37:01;;;;;;;0.50;0.10;;;;;;;9.51;42.06;100365.21;88092;278;135703;-72
2023/10/09 10:39:11;;;;;;;0.80;0.00;;;;;;;9.48;42.10;100364.71;88346;285;23988;-72
2023/10/09 10:41:22;;;;;;;0.10;0.00;;;;;;;9.47;42.10;100357.38;88197;285;137110;-76
2023/10/09 10:45:38;;;;;;;0.50;0.10;;;;;;;9.51;42.21;100368.08;88125;278;135914;-74
2023/10/09 10:47:42;;;;;;;0.90;0.10;;;;;;;9.54;41.74;100368.86;88457;278;22554;-74
2023/10/09 10:49:49;;;;;;;1.00;0.10;;;;;;;9.54;41.77;100365.42;88161;282;135758;-74
2023/10/09 10:52:01;;;;;;;0.20;0.00;;;;;;;9.54;42.07;100361.38;88049;280;25083;-75
2023/10/09 10:56:59;;;;;;;0.80;0.10;;;;;;;9.62;42.63;100357.45;88118;278;136118;-77
2023/10/09 11:01:15;;;;;;;0.10;0.10;;;;;;;9.69;41.96;100354.10;88112;282;137054;-80
2023/10/09 11:03:35;;;;;;;1.10;0.10;;;;;;;9.71;42.34;100346.19;88291;285;23811;-76
2023/10/09 11:05:40;;;;;;;0.10;0.00;;;;;;;9.74;42.03;100338.95;88297;285;135733;-77
2023/10/09 11:07:43;;;;;;;0.10;0.00;;;;;;;9.75;42.13;100340.83;88427;282;22558;-78
2023/10/09 11:12:23;;;;;;;0.10;0.10;;;;;;;9.80;42.01;100330.10;88462;278;22481;-79
2023/10/09 11:14:26;;;;;;;0.20;0.10;;;;;;;9.82;42.22;100327.59;88298;280;22536;-74
2023/10/09 11:18:45;;;;;;;0.80;0.10;;;;;;;9.87;42.31;100326.55;88331;278;22553;-78
2023/10/09 11:25:18;;;;;;;1.30;0.10;;;;;;;9.89;41.18;100326.40;88122;285;135353;-75
2023/10/09 11:27:24;;;;;;;0.20;0.00;;;;;;;9.88;41.19;100334.42;89463;285;25207;-72
2023/10/09 11:31:28;;;;;;;0.50;0.00;;;;;;;9.88;41.53;100336.37;88356;280;25204;-76
2023/10/09 11:33:44;;;;;;;0.30;0.00;;;;;;;9.89;41.74;100333.64;88319;282;136027;-77
2023/10/09 11:35:57;;;;;;;1.10;0.00;;;;;;;9.87;42.02;100320.16;88410;285;25236;-77
2023/10/09 11:37:59;;;;;;;1.00;0.10;;;;;;;9.88;42.50;100329.02;88185;278;135719;-80
2023/10/09 11:40:01;;;;;;;0.80;0.10;;;;;;;9.90;42.66;100326.89;88250;280;24083;-75
2023/10/09 11:42:08;;;;;;;1.00;0.10;;;;;;;9.91;42.35;100313.66;88398;281;22534;-75
2023/10/09 11:44:33;;;;;;;0.90;0.00;;;;;;;9.92;42.18;100313.27;88282;283;136561;-76
2023/10/09 11:46:50;;;;;;;0.40;0.00;;;;;;;9.94;42.25;100321.52;88825;279;22537;-76
2023/10/09 11:51:23;;;;;;;0.20;0.00;;;;;;;10.01;42.69;100327.02;89252;276;25122;-73